createdAt,value
2022-08-20T00:00:31.500Z,101598.88
2022-08-20T00:03:01.169Z,101596.25
2022-08-20T00:05:31.657Z,101595.06
2022-08-20T00:07:59.311Z,101594.00
2022-08-20T00:10:28.866Z,101600.09
2022-08-20T00:12:56.121Z,101596.38
2022-08-20T00:15:26.278Z,101598.75
2022-08-20T00:17:53.445Z,101586.28
2022-08-20T00:20:23.251Z,101593.38
2022-08-20T00:22:50.073Z,101597.09
2022-08-20T00:25:17.137Z,101591.19
2022-08-20T00:27:43.602Z,101584.47
2022-08-20T00:30:13.240Z,101595.41
2022-08-20T00:32:43.826Z,101591.81
2022-08-20T00:35:13.056Z,101592.78
2022-08-20T00:37:40.026Z,101600.47
2022-08-20T00:40:22.683Z,101588.94
2022-08-20T00:42:58.154Z,101594.00
2022-08-20T00:45:27.584Z,101593.84
2022-08-20T00:47:56.967Z,101596.03
2022-08-20T00:50:29.425Z,101600.47
2022-08-20T00:52:56.271Z,101599.75
2022-08-20T00:55:31.545Z,101596.13
2022-08-20T00:58:03.043Z,101591.94
2022-08-20T01:00:34.286Z,101598.78
2022-08-20T01:03:01.612Z,101592.78
2022-08-20T01:05:29.924Z,101592.06
2022-08-20T01:07:57.508Z,101589.19
2022-08-20T01:10:27.702Z,101591.09
2022-08-20T01:12:59.651Z,101588.81
2022-08-20T01:15:41.248Z,101600.72
2022-08-20T01:18:19.409Z,101604.06
2022-08-20T01:20:54.239Z,101607.91
2022-08-20T01:23:41.926Z,101616.06
2022-08-20T01:26:13.308Z,101613.91
2022-08-20T01:28:54.533Z,101617.13
2022-08-20T01:31:25.586Z,101613.66
2022-08-20T01:33:54.200Z,101612.06
2022-08-20T01:36:26.755Z,101610.72
2022-08-20T01:38:54.952Z,101606.16
2022-08-20T01:41:43.847Z,101607.09
2022-08-20T01:44:16.758Z,101609.09
2022-08-20T01:46:46.646Z,101607.91
2022-08-20T01:49:23.352Z,101606.91
2022-08-20T01:51:51.954Z,101604.81
2022-08-20T01:54:19.540Z,101607.31
2022-08-20T01:57:03.680Z,101608.88
2022-08-20T01:59:31.099Z,101613.78
2022-08-20T02:02:00.406Z,101612.53
2022-08-20T02:04:27.190Z,101607.38
2022-08-20T02:06:57.997Z,101614.31
2022-08-20T02:09:33.786Z,101611.34
2022-08-20T02:12:02.386Z,101605.72
2022-08-20T02:14:29.840Z,101613.97
2022-08-20T02:16:58.406Z,101618.41
2022-08-20T02:19:35.422Z,101616.97
2022-08-20T02:22:09.291Z,101617.06
2022-08-20T02:24:35.762Z,101618.88
2022-08-20T02:27:02.260Z,101623.75
2022-08-20T02:29:28.680Z,101624.47
2022-08-20T02:32:32.026Z,101615.31
2022-08-20T02:34:41.938Z,101620.16
2022-08-20T02:37:09.527Z,101621.50
2022-08-20T02:39:36.345Z,101623.31
2022-08-20T02:42:04.534Z,101625.84
2022-08-20T02:44:31.619Z,101628.19
2022-08-20T02:46:58.488Z,101620.03
2022-08-20T02:49:24.966Z,101622.78
2022-08-20T02:51:51.794Z,101622.09
2022-08-20T02:54:18.477Z,101625.31
2022-08-20T02:56:45.229Z,101616.06
2022-08-20T02:59:19.027Z,101621.75
2022-08-20T03:01:46.712Z,101615.09
2022-08-20T03:04:26.131Z,101620.78
2022-08-20T03:06:52.876Z,101615.63
2022-08-20T03:09:19.299Z,101620.41
2022-08-20T03:11:45.689Z,101616.94
2022-08-20T03:14:12.111Z,101617.03
2022-08-20T03:16:38.521Z,101614.00
2022-08-20T03:19:04.969Z,101624.22
2022-08-20T03:21:32.459Z,101621.66
2022-08-20T03:23:58.981Z,101614.44
2022-08-20T03:26:25.632Z,101626.25
2022-08-20T03:28:52.185Z,101625.72
2022-08-20T03:31:18.949Z,101631.63
2022-08-20T03:33:52.805Z,101626.34
2022-08-20T03:36:27.760Z,101630.66
2022-08-20T03:38:57.881Z,101625.38
2022-08-20T03:41:24.761Z,101628.97
2022-08-20T03:43:51.654Z,101631.81
2022-08-20T03:46:23.297Z,101632.06
2022-08-20T03:48:59.567Z,101639.97
2022-08-20T03:51:27.719Z,101633.72
2022-08-20T03:53:54.110Z,101636.69
2022-08-20T03:56:20.532Z,101636.06
2022-08-20T03:58:46.954Z,101637.22
2022-08-20T04:01:45.030Z,101636.31
2022-08-20T04:04:00.687Z,101632.94
2022-08-20T04:06:29.159Z,101639.69
2022-08-20T04:08:56.325Z,101630.94
2022-08-20T04:11:23.744Z,101638.72
2022-08-20T04:13:50.467Z,101635.25
2022-08-20T04:16:18.113Z,101635.34
2022-08-20T04:18:58.619Z,101631.88
2022-08-20T04:21:33.316Z,101641.59
2022-08-20T04:24:04.840Z,101638.13
2022-08-20T04:26:32.941Z,101646.03
2022-08-20T04:28:59.612Z,101652.44
2022-08-20T04:31:32.859Z,101655.09
2022-08-20T04:34:01.331Z,101652.31
2022-08-20T04:36:27.796Z,101661.41
2022-08-20T04:38:54.229Z,101662.44
2022-08-20T04:41:23.561Z,101662.56
2022-08-20T04:43:52.174Z,101659.22
2022-08-20T04:46:19.277Z,101670.03
2022-08-20T04:48:49.075Z,101663.31
2022-08-20T04:51:17.944Z,101675.53
2022-08-20T04:53:50.358Z,101672.25
2022-08-20T04:56:23.231Z,101674.69
2022-08-20T04:58:49.932Z,101669.75
2022-08-20T05:01:17.027Z,101683.66
2022-08-20T05:03:43.619Z,101679.53
2022-08-20T05:06:12.237Z,101673.41
2022-08-20T05:08:39.672Z,101679.63
2022-08-20T05:11:33.715Z,101688.38
2022-08-20T05:13:53.994Z,101700.16
2022-08-20T05:16:21.350Z,101693.31
2022-08-20T05:18:52.284Z,101689.31
2022-08-20T05:21:20.116Z,101692.69
2022-08-20T05:23:46.941Z,101691.00
2022-08-20T05:26:15.862Z,101692.69
2022-08-20T05:28:54.040Z,101690.25
2022-08-20T05:31:30.990Z,101693.19
2022-08-20T05:34:09.447Z,101694.84
2022-08-20T05:36:39.720Z,101700.97
2022-08-20T05:39:06.229Z,101701.91
2022-08-20T05:41:33.350Z,101703.06
2022-08-20T05:44:01.373Z,101700.56
2022-08-20T05:46:29.510Z,101704.66
2022-08-20T05:48:56.143Z,101709.38
2022-08-20T05:51:26.400Z,101706.00
2022-08-20T05:53:52.913Z,101707.50
2022-08-20T05:56:19.356Z,101703.19
2022-08-20T05:58:53.413Z,101702.31
2022-08-20T06:01:19.903Z,101711.69
2022-08-20T06:04:05.226Z,101719.88
2022-08-20T06:06:45.202Z,101720.94
2022-08-20T06:09:13.724Z,101719.78
2022-08-20T06:11:40.155Z,101717.44
2022-08-20T06:14:06.561Z,101723.78
2022-08-20T06:16:33.627Z,101717.25
2022-08-20T06:19:02.743Z,101720.63
2022-08-20T06:21:29.591Z,101723.69
2022-08-20T06:23:58.479Z,101720.19
2022-08-20T06:26:30.308Z,101724.41
2022-08-20T06:28:58.591Z,101728.53
2022-08-20T06:31:25.296Z,101722.94
2022-08-20T06:33:51.715Z,101721.88
2022-08-20T06:36:19.091Z,101723.91
2022-08-20T06:38:46.219Z,101725.25
2022-08-20T06:41:12.757Z,101726.81
2022-08-20T06:43:39.150Z,101727.56
2022-08-20T06:46:06.816Z,101726.22
2022-08-20T06:48:33.890Z,101735.78
2022-08-20T06:51:00.252Z,101729.47
2022-08-20T06:53:26.636Z,101721.38
2022-08-20T06:55:55.591Z,101730.94
2022-08-20T06:58:36.247Z,101737.69
2022-08-20T07:01:10.600Z,101734.22
2022-08-20T07:03:39.266Z,101736.22
2022-08-20T07:06:09.460Z,101737.59
2022-08-20T07:08:35.922Z,101739.16
2022-08-20T07:11:02.358Z,101739.69
2022-08-20T07:13:28.930Z,101738.84
2022-08-20T07:15:56.126Z,101744.00
2022-08-20T07:18:28.079Z,101744.66
2022-08-20T07:20:57.372Z,101747.38
2022-08-20T07:23:25.758Z,101744.84
2022-08-20T07:25:52.935Z,101750.75
2022-08-20T07:28:23.054Z,101747.19
2022-08-20T07:31:13.832Z,101754.13
2022-08-20T07:33:44.312Z,101751.19
2022-08-20T07:36:12.753Z,101757.28
2022-08-20T07:38:39.330Z,101750.00
2022-08-20T07:41:08.561Z,101754.88
2022-08-20T07:43:34.984Z,101752.34
2022-08-20T07:46:07.338Z,101756.66
2022-08-20T07:48:35.104Z,101760.19
2022-08-20T07:51:06.359Z,101760.72
2022-08-20T07:53:35.917Z,101751.50
2022-08-20T07:56:09.611Z,101761.91
2022-08-20T07:58:43.495Z,101769.03
2022-08-20T08:01:11.328Z,101765.31
2022-08-20T08:03:41.113Z,101774.41
2022-08-20T08:06:29.554Z,101776.06
2022-08-20T08:09:13.124Z,101772.34
2022-08-20T08:11:47.199Z,101771.91
2022-08-20T08:14:19.595Z,101773.88
2022-08-20T08:16:51.184Z,101776.22
2022-08-20T08:20:13.505Z,101771.78
2022-08-20T08:22:57.941Z,101769.78
2022-08-20T08:25:25.967Z,101779.88
2022-08-20T08:28:09.364Z,101778.69
2022-08-20T08:30:36.173Z,101765.84
2022-08-20T08:33:24.465Z,101778.97
2022-08-20T08:43:13.815Z,101776.59
2022-08-20T08:46:08.879Z,101785.38
2022-08-20T08:49:23.035Z,101785.50
2022-08-20T08:52:55.122Z,101789.72
2022-08-20T08:56:03.466Z,101799.03
2022-08-20T08:58:38.476Z,101797.69
2022-08-20T09:01:54.153Z,101789.63
2022-08-20T09:15:13.591Z,101796.09
2022-08-20T09:17:41.366Z,101794.19
2022-08-20T09:20:10.909Z,101797.81
2022-08-20T09:22:37.583Z,101805.03
2022-08-20T09:25:05.119Z,101802.63
2022-08-20T09:27:32.043Z,101799.03
2022-08-20T09:29:58.728Z,101805.25
2022-08-20T09:32:26.039Z,101788.66
2022-08-20T09:34:58.812Z,101792.25
2022-08-20T09:37:29.858Z,101789.22
2022-08-20T09:39:58.287Z,101797.06
2022-08-20T09:42:28.150Z,101796.34
2022-08-20T09:44:55.421Z,101796.09
2022-08-20T09:47:22.213Z,101799.22
2022-08-20T09:49:49.110Z,101792.81
2022-08-20T09:52:24.481Z,101792.81
2022-08-20T09:54:55.271Z,101794.13
2022-08-20T09:57:22.420Z,101792.19
2022-08-20T09:59:54.689Z,101789.28
2022-08-20T10:02:21.255Z,101782.25
2022-08-20T10:04:47.902Z,101784.78
2022-08-20T10:07:15.879Z,101782.47
2022-08-20T10:09:42.739Z,101791.47
2022-08-20T10:12:09.364Z,101796.25
2022-08-20T10:14:35.914Z,101798.63
2022-08-20T10:17:03.847Z,101796.78
2022-08-20T10:19:31.338Z,101788.03
2022-08-20T10:21:59.014Z,101794.41
2022-08-20T10:24:26.527Z,101789.69
2022-08-20T10:26:58.655Z,101789.88
2022-08-20T10:29:26.944Z,101793.25
2022-08-20T10:31:56.928Z,101797.03
2022-08-20T10:34:24.825Z,101796.03
2022-08-20T10:36:51.837Z,101798.56
2022-08-20T10:39:18.322Z,101803.41
2022-08-20T10:41:44.871Z,101794.66
2022-08-20T10:44:11.388Z,101802.56
2022-08-20T10:46:38.237Z,101792.16
2022-08-20T10:49:05.130Z,101794.59
2022-08-20T10:51:32.544Z,101795.63
2022-08-20T10:53:59.701Z,101789.94
2022-08-20T10:56:26.163Z,101790.94
2022-08-20T10:58:52.668Z,101790.56
2022-08-20T11:01:31.249Z,101794.50
2022-08-20T11:03:59.859Z,101795.00
2022-08-20T11:06:26.415Z,101795.66
2022-08-20T11:08:53.008Z,101799.03
2022-08-20T11:11:19.465Z,101800.00
2022-08-20T11:13:45.998Z,101798.38
2022-08-20T11:16:12.536Z,101802.06
2022-08-20T11:18:40.182Z,101800.53
2022-08-20T11:21:08.816Z,101800.28
2022-08-20T11:23:35.425Z,101792.63
2022-08-20T11:26:01.927Z,101795.72
2022-08-20T11:28:32.282Z,101795.03
2022-08-20T11:31:00.330Z,101796.13
2022-08-20T11:33:26.884Z,101804.16
2022-08-20T11:35:53.518Z,101795.59
2022-08-20T11:38:20.073Z,101799.25
2022-08-20T11:40:47.348Z,101798.84
2022-08-20T11:43:15.988Z,101799.38
2022-08-20T11:45:46.288Z,101800.47
2022-08-20T11:48:13.232Z,101799.09
2022-08-20T11:50:39.762Z,101799.06
2022-08-20T11:53:06.221Z,101792.34
2022-08-20T11:55:35.003Z,101798.69
2022-08-20T11:58:01.657Z,101798.94
2022-08-20T12:00:33.011Z,101796.13
2022-08-20T12:03:09.204Z,101800.44
2022-08-20T12:05:37.344Z,101803.84
2022-08-20T12:08:05.071Z,101789.59
2022-08-20T12:10:31.990Z,101797.81
2022-08-20T12:12:58.980Z,101796.81
2022-08-20T12:15:27.479Z,101793.72
2022-08-20T12:17:54.810Z,101793.84
2022-08-20T12:20:22.833Z,101788.41
2022-08-20T12:22:49.281Z,101783.03
2022-08-20T12:25:15.756Z,101780.69
2022-08-20T12:27:42.821Z,101787.41
2022-08-20T12:30:15.915Z,101786.47
2022-08-20T12:32:42.573Z,101787.59
2022-08-20T12:35:11.440Z,101783.97
2022-08-20T12:37:38.643Z,101783.53
2022-08-20T12:40:10.746Z,101783.47
2022-08-20T12:42:37.349Z,101786.59
2022-08-20T12:45:04.247Z,101783.78
2022-08-20T12:47:34.277Z,101781.16
2022-08-20T12:50:05.827Z,101785.66
2022-08-20T12:52:32.879Z,101780.50
2022-08-20T12:55:00.666Z,101786.91
2022-08-20T12:57:30.406Z,101782.59
2022-08-20T13:00:03.750Z,101790.94
2022-08-20T13:02:31.375Z,101777.56
2022-08-20T13:05:02.500Z,101777.94
2022-08-20T13:07:32.264Z,101782.91
2022-08-20T13:09:59.527Z,101780.03
2022-08-20T13:12:26.289Z,101776.38
2022-08-20T13:14:52.716Z,101779.66
2022-08-20T13:17:19.671Z,101776.25
2022-08-20T13:19:53.850Z,101775.88
2022-08-20T13:22:20.358Z,101771.94
2022-08-20T13:24:46.899Z,101768.63
2022-08-20T13:27:17.652Z,101777.25
2022-08-20T13:29:49.836Z,101776.13
2022-08-20T13:32:17.091Z,101774.59
2022-08-20T13:34:45.441Z,101772.78
2022-08-20T13:37:25.562Z,101776.59
2022-08-20T13:39:53.092Z,101771.25
2022-08-20T13:42:20.379Z,101774.88
2022-08-20T13:44:47.125Z,101776.84
2022-08-20T13:47:28.097Z,101774.75
2022-08-20T13:50:00.496Z,101771.66
2022-08-20T13:52:27.791Z,101766.78
2022-08-20T13:54:54.677Z,101763.00
2022-08-20T13:57:23.442Z,101765.53
2022-08-20T13:59:51.962Z,101757.94
2022-08-20T14:02:19.710Z,101764.34
2022-08-20T14:04:48.014Z,101761.94
2022-08-20T14:07:18.479Z,101766.91
2022-08-20T14:09:48.375Z,101761.75
2022-08-20T14:12:16.666Z,101764.16
2022-08-20T14:14:43.861Z,101757.44
2022-08-20T14:17:14.356Z,101759.09
2022-08-20T14:19:41.681Z,101754.00
2022-08-20T14:22:08.104Z,101759.44
2022-08-20T14:24:35.780Z,101757.38
2022-08-20T14:27:07.357Z,101758.06
2022-08-20T14:29:36.033Z,101761.09
2022-08-20T14:32:04.591Z,101761.50
2022-08-20T14:34:31.988Z,101754.50
2022-08-20T14:37:23.526Z,101759.22
2022-08-20T14:39:52.895Z,101758.75
2022-08-20T14:42:22.763Z,101757.25
2022-08-20T14:44:50.891Z,101758.63
2022-08-20T14:47:23.832Z,101766.47
2022-08-20T14:49:53.094Z,101762.56
2022-08-20T14:52:21.734Z,101770.53
2022-08-20T14:54:49.478Z,101767.31
2022-08-20T14:57:17.601Z,101759.41
2022-08-20T14:59:44.720Z,101769.34
2022-08-20T15:02:13.825Z,101761.50
2022-08-20T15:04:40.969Z,101756.56
2022-08-20T15:07:23.203Z,101754.38
2022-08-20T15:09:49.626Z,101750.75
2022-08-20T15:12:16.015Z,101753.75
2022-08-20T15:14:42.427Z,101756.06
2022-08-20T15:17:11.270Z,101762.75
2022-08-20T15:19:37.727Z,101761.13
2022-08-20T15:22:04.225Z,101765.75
2022-08-20T15:24:30.773Z,101769.75
2022-08-20T15:26:57.186Z,101770.75
2022-08-20T15:29:23.686Z,101767.28
2022-08-20T15:31:50.892Z,101769.38
2022-08-20T15:34:17.600Z,101765.72
2022-08-20T15:36:44.397Z,101766.94
2022-08-20T15:39:10.888Z,101765.19
2022-08-20T15:41:37.237Z,101765.66
2022-08-20T15:44:03.841Z,101766.22
2022-08-20T15:46:33.556Z,101776.34
2022-08-20T15:49:11.271Z,101772.44
2022-08-20T15:51:42.415Z,101775.47
2022-08-20T15:54:24.868Z,101784.75
2022-08-20T15:57:10.986Z,101783.47
2022-08-20T16:00:00.174Z,101785.75
2022-08-20T16:02:54.838Z,101788.44
2022-08-20T16:05:41.326Z,101797.00
2022-08-20T16:08:21.951Z,101793.63
2022-08-20T16:11:31.182Z,101789.56
2022-08-20T16:14:08.431Z,101792.22
2022-08-20T16:16:42.526Z,101796.13
2022-08-20T16:19:15.272Z,101797.97
2022-08-20T16:21:44.622Z,101798.09
2022-08-20T16:24:13.734Z,101795.84
2022-08-20T16:26:57.791Z,101800.06
2022-08-20T16:29:59.288Z,101798.94
2022-08-20T16:32:25.601Z,101794.84
2022-08-20T16:34:59.187Z,101800.72
2022-08-20T16:37:28.635Z,101788.25
2022-08-20T16:40:03.968Z,101790.78
2022-08-20T16:42:37.271Z,101793.16
2022-08-20T16:45:07.226Z,101803.34
2022-08-20T16:47:37.846Z,101796.63
2022-08-20T16:50:08.213Z,101801.09
2022-08-20T16:52:34.589Z,101794.09
2022-08-20T16:55:01.034Z,101800.66
2022-08-20T16:57:28.655Z,101804.16
2022-08-20T16:59:58.879Z,101810.03
2022-08-20T17:02:25.969Z,101800.66
2022-08-20T17:04:59.004Z,101800.31
2022-08-20T17:07:53.302Z,101803.84
2022-08-20T17:10:24.564Z,101804.31
2022-08-20T17:13:22.349Z,101797.78
2022-08-20T17:15:55.872Z,101796.91
2022-08-20T17:18:25.573Z,101798.59
2022-08-20T17:20:52.824Z,101801.25
2022-08-20T17:23:21.183Z,101796.91
2022-08-20T17:26:02.845Z,101801.94
2022-08-20T17:28:34.524Z,101800.78
2022-08-20T17:31:01.721Z,101798.81
2022-08-20T17:33:33.822Z,101797.97
2022-08-20T17:36:20.048Z,101796.47
2022-08-20T17:38:51.643Z,101806.69
2022-08-20T17:41:27.074Z,101803.59
2022-08-20T17:44:04.673Z,101801.31
2022-08-20T17:46:34.480Z,101796.53
2022-08-20T17:49:08.553Z,101803.25
2022-08-20T17:51:38.934Z,101804.38
2022-08-20T17:54:15.761Z,101797.41
2022-08-20T17:56:43.882Z,101806.47
2022-08-20T17:59:24.098Z,101799.03
2022-08-20T18:02:05.645Z,101808.06
2022-08-20T18:04:34.836Z,101802.78
2022-08-20T18:07:27.779Z,101809.31
2022-08-20T18:10:18.327Z,101803.06
2022-08-20T18:13:10.258Z,101809.31
2022-08-20T18:15:44.037Z,101810.09
2022-08-20T18:18:16.561Z,101813.75
2022-08-20T18:21:04.758Z,101801.19
2022-08-20T18:23:55.651Z,101814.97
2022-08-20T18:26:34.367Z,101812.44
2022-08-20T18:29:27.523Z,101819.56
2022-08-20T18:31:56.664Z,101818.75
2022-08-20T18:34:37.944Z,101813.72
2022-08-20T18:37:06.573Z,101810.59
2022-08-20T18:39:39.735Z,101816.03
2022-08-20T18:42:22.629Z,101816.28
2022-08-20T18:44:52.668Z,101814.16
2022-08-20T18:47:32.279Z,101820.81
2022-08-20T18:50:16.764Z,101817.31
2022-08-20T18:52:50.235Z,101825.78
2022-08-20T18:55:32.593Z,101821.81
2022-08-20T18:58:02.568Z,101817.88
2022-08-20T19:00:36.266Z,101820.91
2022-08-20T19:03:14.361Z,101825.75
2022-08-20T19:06:04.079Z,101828.56
2022-08-20T19:08:45.331Z,101822.88
2022-08-20T19:11:39.928Z,101822.78
2022-08-20T19:14:33.189Z,101821.50
2022-08-20T19:17:03.683Z,101822.28
2022-08-20T19:19:32.993Z,101833.13
2022-08-20T19:22:02.199Z,101829.78
2022-08-20T19:24:31.443Z,101829.44
2022-08-20T19:27:06.896Z,101831.47
2022-08-20T19:29:49.039Z,101833.53
2022-08-20T19:32:27.813Z,101828.47
2022-08-20T19:35:03.868Z,101829.78
2022-08-20T19:37:51.570Z,101834.34
2022-08-20T19:40:26.508Z,101823.78
2022-08-20T19:42:56.442Z,101828.72
2022-08-20T19:45:54.282Z,101822.34
2022-08-20T19:48:53.197Z,101831.97
2022-08-20T19:51:36.965Z,101822.81
2022-08-20T19:54:20.586Z,101825.81
2022-08-20T19:56:46.942Z,101825.34
2022-08-20T19:59:20.889Z,101818.84
2022-08-20T20:02:03.143Z,101820.75
2022-08-20T20:04:55.359Z,101814.75
2022-08-20T20:07:29.831Z,101813.63
2022-08-20T20:10:00.862Z,101822.25
2022-08-20T20:12:27.616Z,101818.72
2022-08-20T20:14:55.186Z,101816.94
2022-08-20T20:17:25.892Z,101817.91
2022-08-20T20:19:59.123Z,101817.53
2022-08-20T20:22:35.978Z,101812.16
2022-08-20T20:25:21.355Z,101817.06
2022-08-20T20:27:54.806Z,101814.28
2022-08-20T20:30:30.008Z,101809.59
2022-08-20T20:32:59.078Z,101812.44
2022-08-20T20:35:35.014Z,101813.16
2022-08-20T20:38:09.240Z,101813.03
2022-08-20T20:40:48.771Z,101807.03
2022-08-20T20:43:30.486Z,101802.69
2022-08-20T20:46:14.100Z,101807.38
2022-08-20T20:48:54.417Z,101809.31
2022-08-20T20:51:29.026Z,101807.94
2022-08-20T20:53:59.458Z,101807.22
2022-08-20T20:56:42.956Z,101806.47
2022-08-20T20:59:10.875Z,101806.84
2022-08-20T21:01:50.177Z,101806.84
2022-08-20T21:04:19.949Z,101805.13
2022-08-20T21:06:46.976Z,101810.34
2022-08-20T21:09:13.852Z,101803.69
2022-08-20T21:11:40.753Z,101805.94
2022-08-20T21:14:07.723Z,101805.94
2022-08-20T21:16:34.412Z,101811.13
2022-08-20T21:19:04.610Z,101808.72
2022-08-20T21:21:32.030Z,101810.72
2022-08-20T21:23:58.536Z,101811.06
2022-08-20T21:26:27.836Z,101816.22
2022-08-20T21:28:54.837Z,101805.06
2022-08-20T21:31:21.932Z,101801.78
2022-08-20T21:33:48.723Z,101808.56
2022-08-20T21:36:15.482Z,101818.94
2022-08-20T21:38:42.459Z,101815.16
2022-08-20T21:41:09.310Z,101810.72
2022-08-20T21:43:35.748Z,101813.88
2022-08-20T21:46:04.064Z,101811.69
2022-08-20T21:48:32.378Z,101807.25
2022-08-20T21:50:59.032Z,101804.75
2022-08-20T21:53:25.797Z,101812.00
2022-08-20T21:55:52.626Z,101812.84
2022-08-20T21:58:20.488Z,101811.28
2022-08-20T22:01:02.133Z,101820.78
2022-08-20T22:03:35.071Z,101808.09
2022-08-20T22:06:07.622Z,101806.53
2022-08-20T22:08:34.898Z,101802.22
2022-08-20T22:11:02.540Z,101807.59
2022-08-20T22:13:32.626Z,101801.69
2022-08-20T22:16:02.002Z,101799.38
2022-08-20T22:18:29.180Z,101797.91
2022-08-20T22:20:56.247Z,101791.34
2022-08-20T22:23:23.655Z,101790.50
2022-08-20T22:25:50.742Z,101787.88
2022-08-20T22:28:18.105Z,101784.94
2022-08-20T22:30:44.934Z,101789.47
2022-08-20T22:33:19.903Z,101788.31
2022-08-20T22:35:48.749Z,101789.25
2022-08-20T22:38:15.848Z,101781.66
2022-08-20T22:40:43.330Z,101778.50
2022-08-20T22:43:10.157Z,101774.91
2022-08-20T22:45:37.303Z,101779.25
2022-08-20T22:48:05.778Z,101775.00
2022-08-20T22:50:32.741Z,101771.00
2022-08-20T22:53:01.745Z,101775.63
2022-08-20T22:55:28.549Z,101770.16
2022-08-20T22:57:55.101Z,101769.63
2022-08-20T23:00:24.135Z,101772.25
2022-08-20T23:02:55.847Z,101769.22
2022-08-20T23:05:25.568Z,101760.97
2022-08-20T23:07:54.531Z,101765.09
2022-08-20T23:10:22.754Z,101763.81
2022-08-20T23:12:49.394Z,101764.66
2022-08-20T23:15:16.192Z,101765.41
2022-08-20T23:17:44.030Z,101766.47
2022-08-20T23:20:17.155Z,101759.47
2022-08-20T23:22:44.031Z,101757.25
2022-08-20T23:25:11.878Z,101759.91
2022-08-20T23:27:45.862Z,101759.28
2022-08-20T23:30:14.026Z,101762.47
2022-08-20T23:32:40.984Z,101762.47
2022-08-20T23:35:08.976Z,101770.38
2022-08-20T23:37:40.233Z,101759.00
2022-08-20T23:40:08.992Z,101759.00
2022-08-20T23:42:35.898Z,101757.00
2022-08-20T23:45:02.901Z,101751.59
2022-08-20T23:47:29.672Z,101746.72
2022-08-20T23:49:56.870Z,101743.88
2022-08-20T23:52:23.962Z,101747.56
2022-08-20T23:54:50.792Z,101742.00
2022-08-20T23:57:20.909Z,101740.41
2022-08-20T23:59:48.152Z,101745.03
